Time;durP1;ratioP1;P1;durP2;ratioP2;P2;SDS_P1;SDS_P2;PMS_P1;PMS_P2;Temp;Humidity;BMP_temperature;BMP_pressure;BME280_temperature;BME280_humidity;BME280_pressure;Samples;Min_cycle;Max_cycle;Signal;HPM_P1;HPM_P2
2021/08/07 00:02:36;;;;;;;0.00;0.00;;;;;;;;;;10557098;27;20055;-22
2021/08/07 00:07:39;;;;;;;0.00;0.00;;;;;;;;;;10558627;28;20105;-21
2021/08/07 00:12:43;;;;;;;0.10;0.00;;;;;;;;;;10556740;28;20050;-22
2021/08/07 00:17:46;;;;;;;0.00;0.00;;;;;;;;;;10557324;28;20059;-22
2021/08/07 00:22:49;;;;;;;0.00;0.00;;;;;;;;;;10558970;28;20055;-22
2021/08/07 00:27:54;;;;;;;0.00;0.00;;;;;;;;;;10557747;28;20051;-21
2021/08/07 00:32:57;;;;;;;0.00;0.00;;;;;;;;;;10557809;28;20055;-22
2021/08/07 00:38:00;;;;;;;0.00;0.00;;;;;;;;;;10556250;28;20146;-21
2021/08/07 00:43:05;;;;;;;0.00;0.00;;;;;;;;;;10555341;28;20055;-22
2021/08/07 00:48:13;;;;;;;0.00;0.00;;;;;;;;;;10554886;28;20544;-22
2021/08/07 00:53:23;;;;;;;0.00;0.00;;;;;;;;;;10556704;28;20650;-22
2021/08/07 00:58:37;;;;;;;0.00;0.00;;;;;;;;;;10556518;28;20108;-22
2021/08/07 01:03:45;;;;;;;0.00;0.00;;;;;;;;;;10556821;27;20040;-21
2021/08/07 01:08:57;;;;;;;0.10;0.10;;;;;;;;;;10576058;27;20052;-21
2021/08/07 01:14:05;;;;;;;0.00;0.00;;;;;;;;;;10562741;28;20810;-22
2021/08/07 01:19:11;;;;;;;0.00;0.00;;;;;;;;;;10565133;28;20198;-22
2021/08/07 01:24:19;;;;;;;0.00;0.00;;;;;;;;;;10562387;28;20393;-22
2021/08/07 01:29:27;;;;;;;0.00;0.00;;;;;;;;;;10562588;28;20134;-22
2021/08/07 01:34:33;;;;;;;0.00;0.00;;;;;;;;;;10562751;28;20046;-22
2021/08/07 01:39:36;;;;;;;0.00;0.00;;;;;;;;;;10561650;28;20138;-21
2021/08/07 01:44:41;;;;;;;0.05;0.05;;;;;;;;;;10562061;28;20403;-22
2021/08/07 01:49:48;;;;;;;0.00;0.00;;;;;;;;;;10561529;28;20131;-22
2021/08/07 01:54:55;;;;;;;0.00;0.00;;;;;;;;;;10562006;28;20050;-22
2021/08/07 02:00:00;;;;;;;0.00;0.00;;;;;;;;;;10562791;28;20038;-21
2021/08/07 02:05:04;;;;;;;0.00;0.00;;;;;;;;;;10563180;28;20058;-22
2021/08/07 02:10:09;;;;;;;0.00;0.00;;;;;;;;;;10562559;27;20087;-22
2021/08/07 02:15:19;;;;;;;0.05;0.00;;;;;;;;;;10558736;28;20043;-22
2021/08/07 02:20:23;;;;;;;0.00;0.00;;;;;;;;;;10560165;28;20049;-23
2021/08/07 02:25:26;;;;;;;0.00;0.00;;;;;;;;;;10560454;28;20531;-21
2021/08/07 02:30:37;;;;;;;0.00;0.00;;;;;;;;;;10561373;28;20047;-21
2021/08/07 02:35:42;;;;;;;0.00;0.00;;;;;;;;;;10560039;28;20078;-22
2021/08/07 02:40:45;;;;;;;0.00;0.00;;;;;;;;;;10561667;28;20044;-22
2021/08/07 02:45:52;;;;;;;0.00;0.00;;;;;;;;;;10558419;28;20138;-22
2021/08/07 02:51:01;;;;;;;0.00;0.00;;;;;;;;;;10556048;28;20056;-22
2021/08/07 02:56:11;;;;;;;0.00;0.00;;;;;;;;;;10555012;28;20047;-21
2021/08/07 03:01:16;;;;;;;0.00;0.00;;;;;;;;;;10557047;28;20047;-22
2021/08/07 03:06:25;;;;;;;0.10;0.00;;;;;;;;;;10557017;28;20048;-22
2021/08/07 03:11:30;;;;;;;0.00;0.00;;;;;;;;;;10558668;28;20042;-21
2021/08/07 03:16:40;;;;;;;0.08;0.00;;;;;;;;;;10554906;28;20163;-21
2021/08/07 03:21:48;;;;;;;0.00;0.00;;;;;;;;;;10557922;28;20500;-22
2021/08/07 03:26:51;;;;;;;0.00;0.00;;;;;;;;;;10553514;28;20052;-22
2021/08/07 03:31:59;;;;;;;0.00;0.00;;;;;;;;;;10555015;28;20408;-22
2021/08/07 03:37:11;;;;;;;0.05;0.05;;;;;;;;;;10554101;28;20047;-22
2021/08/07 03:42:21;;;;;;;0.07;0.07;;;;;;;;;;10557497;28;20879;-21
2021/08/07 03:47:26;;;;;;;0.00;0.00;;;;;;;;;;10554861;28;20120;-22
2021/08/07 03:52:30;;;;;;;0.10;0.10;;;;;;;;;;10557004;28;20043;-21
2021/08/07 03:57:33;;;;;;;0.00;0.00;;;;;;;;;;10553479;28;20047;-21
2021/08/07 04:02:37;;;;;;;0.00;0.00;;;;;;;;;;10556871;28;20130;-21
2021/08/07 04:07:40;;;;;;;0.00;0.00;;;;;;;;;;10553096;28;20051;-22
2021/08/07 04:12:44;;;;;;;0.00;0.00;;;;;;;;;;10555838;28;20058;-21
2021/08/07 04:17:48;;;;;;;0.10;0.10;;;;;;;;;;10555615;27;20066;-21
2021/08/07 04:22:52;;;;;;;0.00;0.00;;;;;;;;;;10554087;28;20884;-22
2021/08/07 04:27:56;;;;;;;0.00;0.00;;;;;;;;;;10552394;28;20582;-22
2021/08/07 04:33:01;;;;;;;0.00;0.00;;;;;;;;;;10556308;28;20044;-21
2021/08/07 04:38:07;;;;;;;0.00;0.00;;;;;;;;;;10555046;28;20589;-22
2021/08/07 04:43:13;;;;;;;0.10;0.10;;;;;;;;;;10560231;28;20059;-22
2021/08/07 04:48:18;;;;;;;0.00;0.00;;;;;;;;;;10561215;28;20134;-21
2021/08/07 04:53:29;;;;;;;0.00;0.00;;;;;;;;;;10560752;28;20163;-22
2021/08/07 04:58:37;;;;;;;0.00;0.00;;;;;;;;;;10561878;28;20049;-21
2021/08/07 05:03:41;;;;;;;0.10;0.10;;;;;;;;;;10559399;28;20431;-21
2021/08/07 05:08:49;;;;;;;0.00;0.00;;;;;;;;;;10562055;28;20051;-21
2021/08/07 05:13:53;;;;;;;0.20;0.00;;;;;;;;;;10563547;28;20055;-21
2021/08/07 05:18:57;;;;;;;0.00;0.00;;;;;;;;;;10564540;28;20047;-21
2021/08/07 05:24:04;;;;;;;0.05;0.05;;;;;;;;;;10561321;28;20067;-22
2021/08/07 05:29:07;;;;;;;0.00;0.00;;;;;;;;;;10562408;27;20054;-21
2021/08/07 05:34:11;;;;;;;0.00;0.00;;;;;;;;;;10563196;27;20035;-22
2021/08/07 05:39:14;;;;;;;0.00;0.00;;;;;;;;;;10562630;28;20059;-22
2021/08/07 05:44:18;;;;;;;0.00;0.00;;;;;;;;;;10562919;28;20052;-23
2021/08/07 05:49:23;;;;;;;0.00;0.00;;;;;;;;;;10562587;28;20420;-21
2021/08/07 05:54:27;;;;;;;0.00;0.00;;;;;;;;;;10561352;28;20152;-22
2021/08/07 05:59:31;;;;;;;0.00;0.00;;;;;;;;;;10559974;28;20052;-22
2021/08/07 06:04:35;;;;;;;0.00;0.00;;;;;;;;;;10559801;28;20075;-21
2021/08/07 06:09:39;;;;;;;0.00;0.00;;;;;;;;;;10562064;28;20047;-21
2021/08/07 06:14:42;;;;;;;0.00;0.00;;;;;;;;;;10557790;28;20057;-22
2021/08/07 06:19:48;;;;;;;0.00;0.00;;;;;;;;;;10561346;28;20139;-22
2021/08/07 06:24:51;;;;;;;0.10;0.00;;;;;;;;;;10562580;27;20115;-22
2021/08/07 06:29:54;;;;;;;0.00;0.00;;;;;;;;;;10560126;28;20455;-21
2021/08/07 06:34:59;;;;;;;0.00;0.00;;;;;;;;;;10560501;28;20062;-22
2021/08/07 06:40:01;;;;;;;0.00;0.00;;;;;;;;;;10560630;28;20040;-22
2021/08/07 06:45:06;;;;;;;0.00;0.00;;;;;;;;;;10558614;28;20044;-22
2021/08/07 06:50:12;;;;;;;0.00;0.00;;;;;;;;;;10560488;28;20050;-22
2021/08/07 06:55:15;;;;;;;0.00;0.00;;;;;;;;;;10558753;28;20138;-21
2021/08/07 07:00:18;;;;;;;0.00;0.00;;;;;;;;;;10555445;28;20047;-21
2021/08/07 07:05:29;;;;;;;0.00;0.00;;;;;;;;;;10558875;28;20051;-21
2021/08/07 07:10:32;;;;;;;0.00;0.00;;;;;;;;;;10556410;28;20171;-22
2021/08/07 07:15:36;;;;;;;0.00;0.00;;;;;;;;;;10558282;28;20040;-21
2021/08/07 07:20:41;;;;;;;0.00;0.00;;;;;;;;;;10560379;28;20422;-21
2021/08/07 07:25:49;;;;;;;0.00;0.00;;;;;;;;;;10557356;27;20095;-21
2021/08/07 07:30:51;;;;;;;0.00;0.00;;;;;;;;;;10556158;27;20047;-22
2021/08/07 07:35:57;;;;;;;0.00;0.00;;;;;;;;;;10554669;28;20047;-22
2021/08/07 07:41:00;;;;;;;0.00;0.00;;;;;;;;;;10556931;27;20055;-22
2021/08/07 07:46:04;;;;;;;0.00;0.00;;;;;;;;;;10558119;28;20051;-22
2021/08/07 07:51:09;;;;;;;0.00;0.00;;;;;;;;;;10556702;28;20039;-22
2021/08/07 07:56:14;;;;;;;0.00;0.00;;;;;;;;;;10587196;27;20050;-22
2021/08/07 08:01:18;;;;;;;0.00;0.00;;;;;;;;;;10557712;28;20046;-21
2021/08/07 08:06:23;;;;;;;0.00;0.00;;;;;;;;;;10554266;28;20047;-22
2021/08/07 08:11:26;;;;;;;0.00;0.00;;;;;;;;;;10558288;28;20047;-22
2021/08/07 08:16:29;;;;;;;0.00;0.00;;;;;;;;;;10555151;28;20043;-21
2021/08/07 08:21:34;;;;;;;0.00;0.00;;;;;;;;;;10557827;28;20048;-22
2021/08/07 08:26:39;;;;;;;0.00;0.00;;;;;;;;;;10555910;28;20059;-21
2021/08/07 08:31:41;;;;;;;0.00;0.00;;;;;;;;;;10558315;28;20407;-22
2021/08/07 08:36:47;;;;;;;0.00;0.00;;;;;;;;;;10551737;27;20487;-22
2021/08/07 08:41:50;;;;;;;0.00;0.00;;;;;;;;;;10555890;28;20636;-22
2021/08/07 08:46:54;;;;;;;0.00;0.00;;;;;;;;;;10551690;28;20146;-22
2021/08/07 08:51:59;;;;;;;0.00;0.00;;;;;;;;;;10554501;28;20521;-22
2021/08/07 08:57:03;;;;;;;0.00;0.00;;;;;;;;;;10553375;28;20055;-22
2021/08/07 09:02:05;;;;;;;0.00;0.00;;;;;;;;;;10553721;28;20034;-23
2021/08/07 09:07:14;;;;;;;0.00;0.00;;;;;;;;;;10550679;28;20035;-22
2021/08/07 09:12:17;;;;;;;0.00;0.00;;;;;;;;;;10552994;28;20062;-22
2021/08/07 09:17:20;;;;;;;0.00;0.00;;;;;;;;;;10551148;28;20058;-22
2021/08/07 09:22:34;;;;;;;0.00;0.00;;;;;;;;;;10554841;28;20051;-22
2021/08/07 09:27:41;;;;;;;0.00;0.00;;;;;;;;;;10552570;28;20056;-22
2021/08/07 09:32:45;;;;;;;0.00;0.00;;;;;;;;;;10560138;28;20482;-21
2021/08/07 09:38:03;;;;;;;0.00;0.00;;;;;;;;;;10560265;28;20496;-22
2021/08/07 09:43:07;;;;;;;0.00;0.00;;;;;;;;;;10558098;28;20039;-22
2021/08/07 09:48:11;;;;;;;0.00;0.00;;;;;;;;;;10560819;28;20048;-22
2021/08/07 09:53:24;;;;;;;0.00;0.00;;;;;;;;;;10557297;28;20048;-22
2021/08/07 09:58:27;;;;;;;0.00;0.00;;;;;;;;;;10556559;28;20456;-22
2021/08/07 10:03:32;;;;;;;0.00;0.00;;;;;;;;;;10561370;28;20507;-22
2021/08/07 10:08:46;;;;;;;0.00;0.00;;;;;;;;;;10557001;28;20055;-22
2021/08/07 10:13:50;;;;;;;0.00;0.00;;;;;;;;;;10554137;28;20036;-22
2021/08/07 10:18:59;;;;;;;0.00;0.00;;;;;;;;;;10558113;28;20162;-23
2021/08/07 10:24:06;;;;;;;0.00;0.00;;;;;;;;;;10555503;28;20893;-23
2021/08/07 10:29:09;;;;;;;0.00;0.00;;;;;;;;;;10559407;28;20496;-22
2021/08/07 10:34:15;;;;;;;0.00;0.00;;;;;;;;;;10560315;28;20096;-22
2021/08/07 10:39:20;;;;;;;0.00;0.00;;;;;;;;;;10558624;28;20055;-22
2021/08/07 10:44:22;;;;;;;0.00;0.00;;;;;;;;;;10559347;28;20443;-21
2021/08/07 10:49:33;;;;;;;0.00;0.00;;;;;;;;;;10556502;28;20769;-22
2021/08/07 10:54:37;;;;;;;0.00;0.00;;;;;;;;;;10557861;28;20419;-23
2021/08/07 10:59:43;;;;;;;0.00;0.00;;;;;;;;;;10559146;28;20068;-22
2021/08/07 11:04:47;;;;;;;0.00;0.00;;;;;;;;;;10560429;28;20036;-22
2021/08/07 11:10:06;;;;;;;0.00;0.00;;;;;;;;;;10558368;28;20044;-22
2021/08/07 11:15:10;;;;;;;0.00;0.00;;;;;;;;;;10562337;27;20048;-22
2021/08/07 11:20:31;;;;;;;0.00;0.00;;;;;;;;;;10557127;27;20059;-22
2021/08/07 11:25:34;;;;;;;;;;;;;;;;;;10555824;28;20122;-22
2021/08/07 11:30:39;;;;;;;0.00;0.00;;;;;;;;;;10558483;28;20117;-22
2021/08/07 11:36:03;;;;;;;0.00;0.00;;;;;;;;;;10556312;28;20042;-22
2021/08/07 11:41:08;;;;;;;0.00;0.00;;;;;;;;;;10557038;28;20054;-22
2021/08/07 11:46:13;;;;;;;0.00;0.00;;;;;;;;;;10556551;28;20493;-22
2021/08/07 11:51:22;;;;;;;0.00;0.00;;;;;;;;;;10555103;28;20049;-22
2021/08/07 11:56:25;;;;;;;0.00;0.00;;;;;;;;;;10555018;28;20048;-22
2021/08/07 12:01:30;;;;;;;0.00;0.00;;;;;;;;;;10553935;28;20698;-22
2021/08/07 12:06:35;;;;;;;0.00;0.00;;;;;;;;;;10556131;28;20054;-22
2021/08/07 12:11:37;;;;;;;0.00;0.00;;;;;;;;;;10555999;28;20455;-23
2021/08/07 12:16:43;;;;;;;0.00;0.00;;;;;;;;;;10552848;28;20051;-23
2021/08/07 12:21:46;;;;;;;0.00;0.00;;;;;;;;;;10553452;27;20465;-22
2021/08/07 12:26:51;;;;;;;0.00;0.00;;;;;;;;;;10554683;28;20044;-22
2021/08/07 12:31:56;;;;;;;0.00;0.00;;;;;;;;;;10553434;28;20131;-23
2021/08/07 12:37:01;;;;;;;0.00;0.00;;;;;;;;;;10552579;28;20173;-22
2021/08/07 12:42:04;;;;;;;0.00;0.00;;;;;;;;;;10554802;28;20044;-22
2021/08/07 12:47:09;;;;;;;0.00;0.00;;;;;;;;;;10551927;28;20043;-22
2021/08/07 12:52:14;;;;;;;0.00;0.00;;;;;;;;;;10552899;28;20530;-22
2021/08/07 12:57:27;;;;;;;0.00;0.00;;;;;;;;;;10551840;28;20045;-22
2021/08/07 13:02:36;;;;;;;0.00;0.00;;;;;;;;;;10554494;28;20043;-22
2021/08/07 13:07:40;;;;;;;0.00;0.00;;;;;;;;;;10562933;28;20052;-24
2021/08/07 13:12:46;;;;;;;0.00;0.00;;;;;;;;;;10564026;28;20066;-21
2021/08/07 13:17:53;;;;;;;0.00;0.00;;;;;;;;;;10563099;28;20079;-21
2021/08/07 13:23:01;;;;;;;0.00;0.00;;;;;;;;;;10564234;28;20035;-20
2021/08/07 13:28:08;;;;;;;0.00;0.00;;;;;;;;;;10558384;27;20066;-21
2021/08/07 13:33:13;;;;;;;0.00;0.00;;;;;;;;;;10564367;28;20042;-21
2021/08/07 13:38:16;;;;;;;0.00;0.00;;;;;;;;;;10562063;27;20055;-21
2021/08/07 13:43:20;;;;;;;0.00;0.00;;;;;;;;;;10562063;28;20054;-22
2021/08/07 13:48:25;;;;;;;0.00;0.00;;;;;;;;;;10563351;28;20097;-22
2021/08/07 13:53:28;;;;;;;0.00;0.00;;;;;;;;;;10564231;28;20051;-21
2021/08/07 13:58:33;;;;;;;0.00;0.00;;;;;;;;;;10560148;28;20052;-22
2021/08/07 14:03:37;;;;;;;0.00;0.00;;;;;;;;;;10563472;28;20131;-22
2021/08/07 14:08:41;;;;;;;0.00;0.00;;;;;;;;;;10559930;28;20523;-23
2021/08/07 14:13:44;;;;;;;0.00;0.00;;;;;;;;;;10562496;27;20044;-22
2021/08/07 14:18:48;;;;;;;0.00;0.00;;;;;;;;;;10561070;28;20039;-23
2021/08/07 14:23:51;;;;;;;0.00;0.00;;;;;;;;;;10558581;28;20039;-23
2021/08/07 14:28:54;;;;;;;0.00;0.00;;;;;;;;;;10558801;28;20044;-24
2021/08/07 14:33:58;;;;;;;0.10;0.00;;;;;;;;;;10560168;27;20043;-23
2021/08/07 14:39:04;;;;;;;0.10;0.00;;;;;;;;;;10558878;28;20043;-22
2021/08/07 14:44:07;;;;;;;0.00;0.00;;;;;;;;;;10524140;27;20052;-23
2021/08/07 14:49:11;;;;;;;0.00;0.00;;;;;;;;;;10494612;28;20049;-22
2021/08/07 14:54:14;;;;;;;0.00;0.00;;;;;;;;;;10494676;28;20051;-22
2021/08/07 14:59:17;;;;;;;0.03;0.00;;;;;;;;;;10493021;28;20072;-22
2021/08/07 15:04:21;;;;;;;0.00;0.00;;;;;;;;;;10489924;28;20040;-22
2021/08/07 15:09:23;;;;;;;0.00;0.00;;;;;;;;;;10497892;28;20064;-22
2021/08/07 15:14:26;;;;;;;0.00;0.00;;;;;;;;;;10489763;28;20756;-22
2021/08/07 15:19:30;;;;;;;0.00;0.00;;;;;;;;;;10494589;28;20051;-22
2021/08/07 15:24:33;;;;;;;0.00;0.00;;;;;;;;;;10490469;28;20037;-22
2021/08/07 15:29:39;;;;;;;0.00;0.00;;;;;;;;;;10497698;28;20055;-22
2021/08/07 15:34:44;;;;;;;0.00;0.00;;;;;;;;;;10493491;28;20040;-22
2021/08/07 15:39:47;;;;;;;0.00;0.00;;;;;;;;;;10496698;28;20576;-22
2021/08/07 15:44:49;;;;;;;0.00;0.00;;;;;;;;;;10488498;28;20041;-22
2021/08/07 15:49:56;;;;;;;0.00;0.00;;;;;;;;;;10494127;28;20047;-22
2021/08/07 15:54:59;;;;;;;0.00;0.00;;;;;;;;;;10493184;28;20036;-22
2021/08/07 16:00:02;;;;;;;0.00;0.00;;;;;;;;;;10480256;28;20036;-22
2021/08/07 16:05:15;;;;;;;0.00;0.00;;;;;;;;;;10482166;28;20083;-22
2021/08/07 16:10:18;;;;;;;0.05;0.00;;;;;;;;;;10489790;28;20505;-22
2021/08/07 16:15:21;;;;;;;0.00;0.00;;;;;;;;;;10491992;28;20048;-22
2021/08/07 16:20:25;;;;;;;0.00;0.00;;;;;;;;;;10484736;28;20049;-22
2021/08/07 16:25:29;;;;;;;0.00;0.00;;;;;;;;;;10477337;28;20046;-22
2021/08/07 16:30:32;;;;;;;0.00;0.00;;;;;;;;;;10490351;28;20052;-22
2021/08/07 16:35:36;;;;;;;0.00;0.00;;;;;;;;;;10481585;28;20051;-22
2021/08/07 16:40:39;;;;;;;0.00;0.00;;;;;;;;;;10496403;28;20048;-22
2021/08/07 16:45:42;;;;;;;0.00;0.00;;;;;;;;;;10500569;28;20685;-22
2021/08/07 16:50:47;;;;;;;0.00;0.00;;;;;;;;;;10496272;28;20403;-22
2021/08/07 16:55:50;;;;;;;0.00;0.00;;;;;;;;;;10498078;28;20040;-22
2021/08/07 17:00:53;;;;;;;0.00;0.00;;;;;;;;;;10498098;28;20044;-22
2021/08/07 17:05:59;;;;;;;0.00;0.00;;;;;;;;;;10490912;28;20055;-23
2021/08/07 17:11:02;;;;;;;0.10;0.00;;;;;;;;;;10491290;28;20070;-22
2021/08/07 17:16:06;;;;;;;0.00;0.00;;;;;;;;;;10495371;28;20035;-22
2021/08/07 17:21:10;;;;;;;0.00;0.00;;;;;;;;;;10498559;28;20509;-23
2021/08/07 17:26:13;;;;;;;0.00;0.00;;;;;;;;;;10495425;28;20044;-22
2021/08/07 17:31:15;;;;;;;0.00;0.00;;;;;;;;;;10501382;28;20497;-22
2021/08/07 17:36:19;;;;;;;0.00;0.00;;;;;;;;;;10485834;28;20048;-22
2021/08/07 17:41:22;;;;;;;0.00;0.00;;;;;;;;;;10490242;28;20417;-22
2021/08/07 17:46:30;;;;;;;0.00;0.00;;;;;;;;;;10492724;28;20782;-23
2021/08/07 17:51:35;;;;;;;0.10;0.10;;;;;;;;;;10497909;28;20071;-22
2021/08/07 17:56:42;;;;;;;0.00;0.00;;;;;;;;;;10496304;28;20079;-22
2021/08/07 18:01:45;;;;;;;0.00;0.00;;;;;;;;;;10498999;28;20041;-22
2021/08/07 18:06:50;;;;;;;0.00;0.00;;;;;;;;;;10494389;28;20049;-22
2021/08/07 18:11:54;;;;;;;0.00;0.00;;;;;;;;;;10496772;28;20052;-22
2021/08/07 18:16:56;;;;;;;0.00;0.00;;;;;;;;;;10494026;28;20043;-22
2021/08/07 18:22:19;;;;;;;0.00;0.00;;;;;;;;;;10499379;28;20040;-22
2021/08/07 18:27:21;;;;;;;0.00;0.00;;;;;;;;;;10490983;28;20041;-23
2021/08/07 18:32:24;;;;;;;0.00;0.00;;;;;;;;;;10500341;28;20059;-22
2021/08/07 18:37:28;;;;;;;0.00;0.00;;;;;;;;;;10494150;28;20063;-23
2021/08/07 18:42:31;;;;;;;0.00;0.00;;;;;;;;;;10498099;28;20046;-22
2021/08/07 18:47:34;;;;;;;0.00;0.00;;;;;;;;;;10491899;28;20075;-22
2021/08/07 18:52:38;;;;;;;0.00;0.00;;;;;;;;;;10498804;28;20048;-22
2021/08/07 18:57:41;;;;;;;0.00;0.00;;;;;;;;;;10493315;28;20049;-22
2021/08/07 19:02:44;;;;;;;0.00;0.00;;;;;;;;;;10499674;28;20385;-22
2021/08/07 19:07:48;;;;;;;0.00;0.00;;;;;;;;;;10488683;28;20315;-22
2021/08/07 19:12:52;;;;;;;0.00;0.00;;;;;;;;;;10479305;28;20035;-22
2021/08/07 19:17:55;;;;;;;0.00;0.00;;;;;;;;;;10493146;28;20033;-22
2021/08/07 19:22:59;;;;;;;0.00;0.00;;;;;;;;;;10495180;28;20048;-22
2021/08/07 19:28:02;;;;;;;0.00;0.00;;;;;;;;;;10491977;28;20509;-22
2021/08/07 19:33:05;;;;;;;0.00;0.00;;;;;;;;;;10488262;28;20040;-25
2021/08/07 19:38:10;;;;;;;0.00;0.00;;;;;;;;;;10491435;28;20040;-25
2021/08/07 19:43:13;;;;;;;0.00;0.00;;;;;;;;;;10497451;28;20049;-25
2021/08/07 19:48:15;;;;;;;0.00;0.00;;;;;;;;;;10496492;28;20041;-24
2021/08/07 19:53:20;;;;;;;0.00;0.00;;;;;;;;;;10489254;28;20059;-25
2021/08/07 19:58:24;;;;;;;0.00;0.00;;;;;;;;;;10495512;28;20123;-25
2021/08/07 20:03:27;;;;;;;0.00;0.00;;;;;;;;;;10488756;28;20052;-26
2021/08/07 20:08:32;;;;;;;0.00;0.00;;;;;;;;;;10490957;28;21799;-24
2021/08/07 20:13:35;;;;;;;0.00;0.00;;;;;;;;;;10490858;28;20048;-25
2021/08/07 20:18:39;;;;;;;0.00;0.00;;;;;;;;;;10492884;28;20036;-25
2021/08/07 20:23:43;;;;;;;0.00;0.00;;;;;;;;;;10489898;28;20041;-25
2021/08/07 20:28:46;;;;;;;0.00;0.00;;;;;;;;;;10489261;28;20044;-25
2021/08/07 20:33:50;;;;;;;0.00;0.00;;;;;;;;;;10490223;28;20122;-25
2021/08/07 20:38:56;;;;;;;0.00;0.00;;;;;;;;;;10493904;28;20040;-26
2021/08/07 20:43:59;;;;;;;0.00;0.00;;;;;;;;;;10485789;28;20055;-25
2021/08/07 20:49:02;;;;;;;0.17;0.00;;;;;;;;;;10472925;28;20033;-26
2021/08/07 20:54:06;;;;;;;0.00;0.00;;;;;;;;;;10475189;28;20061;-25
2021/08/07 20:59:09;;;;;;;0.00;0.00;;;;;;;;;;10486010;28;20413;-25
2021/08/07 21:04:12;;;;;;;0.00;0.00;;;;;;;;;;10491857;28;20064;-25
2021/08/07 21:09:16;;;;;;;0.10;0.00;;;;;;;;;;10485568;28;20055;-25
2021/08/07 21:14:19;;;;;;;0.00;0.00;;;;;;;;;;10486068;28;20060;-25
2021/08/07 21:19:22;;;;;;;0.00;0.00;;;;;;;;;;10497702;28;20539;-25
2021/08/07 21:24:26;;;;;;;0.00;0.00;;;;;;;;;;10495895;28;20063;-25
2021/08/07 21:29:29;;;;;;;0.00;0.00;;;;;;;;;;10491864;28;20045;-26
2021/08/07 21:34:32;;;;;;;0.00;0.00;;;;;;;;;;10503660;28;20044;-25
2021/08/07 21:39:37;;;;;;;0.00;0.00;;;;;;;;;;10496816;28;20040;-25
2021/08/07 21:44:40;;;;;;;0.00;0.00;;;;;;;;;;10495285;28;20047;-27
2021/08/07 21:49:43;;;;;;;0.00;0.00;;;;;;;;;;10502265;28;20052;-25
2021/08/07 21:54:49;;;;;;;0.00;0.00;;;;;;;;;;10496477;28;20044;-25
2021/08/07 21:59:51;;;;;;;0.00;0.00;;;;;;;;;;10499623;28;20052;-26
2021/08/07 22:04:54;;;;;;;0.00;0.00;;;;;;;;;;10493908;28;20137;-25
2021/08/07 22:09:58;;;;;;;0.00;0.00;;;;;;;;;;10495793;28;20052;-25
2021/08/07 22:15:01;;;;;;;0.00;0.00;;;;;;;;;;10494968;28;20068;-25
2021/08/07 22:20:04;;;;;;;0.00;0.00;;;;;;;;;;10498717;28;20050;-25
2021/08/07 22:25:09;;;;;;;0.00;0.00;;;;;;;;;;10498144;28;20033;-24
2021/08/07 22:30:12;;;;;;;0.00;0.00;;;;;;;;;;10480617;28;20049;-25
2021/08/07 22:35:14;;;;;;;0.00;0.00;;;;;;;;;;10484336;28;20142;-25
2021/08/07 22:40:18;;;;;;;0.00;0.00;;;;;;;;;;10492544;28;20052;-25
2021/08/07 22:45:21;;;;;;;0.00;0.00;;;;;;;;;;10499682;28;20043;-25
2021/08/07 22:50:26;;;;;;;0.00;0.00;;;;;;;;;;10494424;28;20048;-25
2021/08/07 22:55:32;;;;;;;0.22;0.00;;;;;;;;;;10483933;28;20036;-25
2021/08/07 23:00:35;;;;;;;0.00;0.00;;;;;;;;;;10495461;28;20047;-25
2021/08/07 23:05:38;;;;;;;0.00;0.00;;;;;;;;;;10487168;28;20790;-25
2021/08/07 23:10:42;;;;;;;0.00;0.00;;;;;;;;;;10486584;28;20048;-25
2021/08/07 23:15:44;;;;;;;0.00;0.00;;;;;;;;;;10491996;28;20059;-26
2021/08/07 23:20:47;;;;;;;0.00;0.00;;;;;;;;;;10494435;28;20117;-23
2021/08/07 23:25:51;;;;;;;0.00;0.00;;;;;;;;;;10497615;28;20040;-23
2021/08/07 23:30:54;;;;;;;0.00;0.00;;;;;;;;;;10495979;28;20056;-24
2021/08/07 23:35:57;;;;;;;0.00;0.00;;;;;;;;;;10488269;28;20049;-23
2021/08/07 23:41:01;;;;;;;0.00;0.00;;;;;;;;;;10492162;28;20055;-22
2021/08/07 23:46:03;;;;;;;0.00;0.00;;;;;;;;;;10492847;28;20049;-23
2021/08/07 23:51:06;;;;;;;0.00;0.00;;;;;;;;;;10492931;28;20046;-23
2021/08/07 23:56:10;;;;;;;0.00;0.00;;;;;;;;;;10492009;28;20043;-23
